sensor_id;sensor_type;location;lat;lon;timestamp;P1;durP1;ratioP1;P2;durP2;ratioP2
14817;SDS011;7500;57.698;11.986;2022-09-21T00:00:50;3.10;;;1.00;;
14817;SDS011;7500;57.698;11.986;2022-09-21T00:03:16;1.40;;;0.90;;
14817;SDS011;7500;57.698;11.986;2022-09-21T00:05:44;3.63;;;1.07;;
14817;SDS011;7500;57.698;11.986;2022-09-21T00:08:11;1.00;;;0.90;;
14817;SDS011;7500;57.698;11.986;2022-09-21T00:10:41;1.77;;;1.00;;
14817;SDS011;7500;57.698;11.986;2022-09-21T00:13:09;3.23;;;1.00;;
14817;SDS011;7500;57.698;11.986;2022-09-21T00:15:38;1.27;;;0.80;;
14817;SDS011;7500;57.698;11.986;2022-09-21T00:18:05;1.43;;;1.00;;
14817;SDS011;7500;57.698;11.986;2022-09-21T00:20:32;2.90;;;0.90;;
14817;SDS011;7500;57.698;11.986;2022-09-21T00:22:59;3.73;;;0.90;;
14817;SDS011;7500;57.698;11.986;2022-09-21T00:25:26;2.90;;;0.60;;
14817;SDS011;7500;57.698;11.986;2022-09-21T00:27:54;4.20;;;0.93;;
14817;SDS011;7500;57.698;11.986;2022-09-21T00:30:21;1.57;;;0.83;;
14817;SDS011;7500;57.698;11.986;2022-09-21T00:32:47;2.63;;;0.97;;
14817;SDS011;7500;57.698;11.986;2022-09-21T00:35:14;1.40;;;1.00;;
14817;SDS011;7500;57.698;11.986;2022-09-21T00:37:41;4.57;;;1.00;;
14817;SDS011;7500;57.698;11.986;2022-09-21T00:40:08;3.10;;;1.20;;
14817;SDS011;7500;57.698;11.986;2022-09-21T00:42:35;2.90;;;1.20;;
14817;SDS011;7500;57.698;11.986;2022-09-21T00:45:05;3.10;;;1.10;;
14817;SDS011;7500;57.698;11.986;2022-09-21T00:47:45;3.60;;;1.30;;
14817;SDS011;7500;57.698;11.986;2022-09-21T00:50:16;5.70;;;1.20;;
14817;SDS011;7500;57.698;11.986;2022-09-21T00:52:46;4.70;;;1.30;;
14817;SDS011;7500;57.698;11.986;2022-09-21T00:55:17;3.70;;;0.93;;
14817;SDS011;7500;57.698;11.986;2022-09-21T00:57:48;1.00;;;0.90;;
14817;SDS011;7500;57.698;11.986;2022-09-21T01:00:21;2.17;;;1.00;;
14817;SDS011;7500;57.698;11.986;2022-09-21T01:02:47;1.57;;;0.90;;
14817;SDS011;7500;57.698;11.986;2022-09-21T01:05:15;2.60;;;1.10;;
14817;SDS011;7500;57.698;11.986;2022-09-21T01:07:43;1.47;;;0.97;;
14817;SDS011;7500;57.698;11.986;2022-09-21T01:10:12;2.57;;;0.93;;
14817;SDS011;7500;57.698;11.986;2022-09-21T01:12:45;2.47;;;0.87;;
14817;SDS011;7500;57.698;11.986;2022-09-21T01:15:28;2.57;;;0.90;;
14817;SDS011;7500;57.698;11.986;2022-09-21T01:18:05;1.83;;;1.00;;
14817;SDS011;7500;57.698;11.986;2022-09-21T01:24:00;3.37;;;0.97;;
14817;SDS011;7500;57.698;11.986;2022-09-21T01:26:48;3.00;;;1.30;;
14817;SDS011;7500;57.698;11.986;2022-09-21T01:29:29;2.83;;;0.87;;
14817;SDS011;7500;57.698;11.986;2022-09-21T01:31:59;3.43;;;1.07;;
14817;SDS011;7500;57.698;11.986;2022-09-21T01:34:32;3.97;;;1.23;;
14817;SDS011;7500;57.698;11.986;2022-09-21T01:37:04;3.27;;;1.07;;
14817;SDS011;7500;57.698;11.986;2022-09-21T01:39:35;5.03;;;1.10;;
14817;SDS011;7500;57.698;11.986;2022-09-21T01:42:05;3.77;;;1.40;;
14817;SDS011;7500;57.698;11.986;2022-09-21T01:44:35;3.67;;;1.00;;
14817;SDS011;7500;57.698;11.986;2022-09-21T01:47:06;3.27;;;0.90;;
14817;SDS011;7500;57.698;11.986;2022-09-21T01:49:37;3.70;;;1.23;;
14817;SDS011;7500;57.698;11.986;2022-09-21T01:52:10;3.40;;;1.20;;
14817;SDS011;7500;57.698;11.986;2022-09-21T01:54:40;1.50;;;1.30;;
14817;SDS011;7500;57.698;11.986;2022-09-21T01:57:14;2.53;;;1.17;;
14817;SDS011;7500;57.698;11.986;2022-09-21T01:59:49;2.80;;;1.23;;
14817;SDS011;7500;57.698;11.986;2022-09-21T02:02:19;2.30;;;1.20;;
14817;SDS011;7500;57.698;11.986;2022-09-21T02:04:50;2.07;;;1.13;;
14817;SDS011;7500;57.698;11.986;2022-09-21T02:07:17;6.43;;;1.40;;
14817;SDS011;7500;57.698;11.986;2022-09-21T02:09:45;3.77;;;1.47;;
14817;SDS011;7500;57.698;11.986;2022-09-21T02:12:12;5.20;;;1.40;;
14817;SDS011;7500;57.698;11.986;2022-09-21T02:14:39;2.17;;;1.00;;
14817;SDS011;7500;57.698;11.986;2022-09-21T02:17:13;4.53;;;1.20;;
14817;SDS011;7500;57.698;11.986;2022-09-21T02:19:52;2.40;;;1.00;;
14817;SDS011;7500;57.698;11.986;2022-09-21T02:22:28;3.00;;;1.20;;
14817;SDS011;7500;57.698;11.986;2022-09-21T02:25:06;1.73;;;0.90;;
14817;SDS011;7500;57.698;11.986;2022-09-21T02:27:40;1.27;;;0.90;;
14817;SDS011;7500;57.698;11.986;2022-09-21T02:30:14;4.27;;;1.30;;
14817;SDS011;7500;57.698;11.986;2022-09-21T02:32:46;2.40;;;0.93;;
14817;SDS011;7500;57.698;11.986;2022-09-21T02:35:23;3.87;;;0.90;;
14817;SDS011;7500;57.698;11.986;2022-09-21T02:37:59;3.73;;;1.10;;
14817;SDS011;7500;57.698;11.986;2022-09-21T02:40:32;3.00;;;1.23;;
14817;SDS011;7500;57.698;11.986;2022-09-21T02:43:03;2.13;;;0.90;;
14817;SDS011;7500;57.698;11.986;2022-09-21T02:45:35;1.93;;;1.10;;
14817;SDS011;7500;57.698;11.986;2022-09-21T02:48:09;1.67;;;1.03;;
14817;SDS011;7500;57.698;11.986;2022-09-21T02:50:40;1.87;;;1.17;;
14817;SDS011;7500;57.698;11.986;2022-09-21T02:53:11;3.90;;;1.20;;
14817;SDS011;7500;57.698;11.986;2022-09-21T02:55:42;3.03;;;1.33;;
14817;SDS011;7500;57.698;11.986;2022-09-21T02:58:11;1.90;;;1.03;;
14817;SDS011;7500;57.698;11.986;2022-09-21T03:00:42;2.50;;;1.03;;
14817;SDS011;7500;57.698;11.986;2022-09-21T03:03:19;1.20;;;0.90;;
14817;SDS011;7500;57.698;11.986;2022-09-21T03:05:50;2.20;;;1.00;;
14817;SDS011;7500;57.698;11.986;2022-09-21T03:08:19;1.17;;;0.90;;
14817;SDS011;7500;57.698;11.986;2022-09-21T03:10:46;1.83;;;1.13;;
14817;SDS011;7500;57.698;11.986;2022-09-21T03:13:15;1.20;;;1.00;;
14817;SDS011;7500;57.698;11.986;2022-09-21T03:15:42;3.30;;;0.80;;
14817;SDS011;7500;57.698;11.986;2022-09-21T03:18:09;1.70;;;0.90;;
14817;SDS011;7500;57.698;11.986;2022-09-21T03:20:38;2.80;;;1.13;;
14817;SDS011;7500;57.698;11.986;2022-09-21T03:23:10;1.97;;;0.97;;
14817;SDS011;7500;57.698;11.986;2022-09-21T03:25:37;1.40;;;0.97;;
14817;SDS011;7500;57.698;11.986;2022-09-21T03:28:04;3.40;;;1.10;;
14817;SDS011;7500;57.698;11.986;2022-09-21T03:30:31;1.03;;;0.90;;
14817;SDS011;7500;57.698;11.986;2022-09-21T03:32:57;1.80;;;1.10;;
14817;SDS011;7500;57.698;11.986;2022-09-21T03:35:24;1.87;;;1.10;;
14817;SDS011;7500;57.698;11.986;2022-09-21T03:37:53;2.97;;;1.30;;
14817;SDS011;7500;57.698;11.986;2022-09-21T03:40:20;1.60;;;0.93;;
14817;SDS011;7500;57.698;11.986;2022-09-21T03:42:47;1.10;;;0.83;;
14817;SDS011;7500;57.698;11.986;2022-09-21T03:45:14;1.93;;;1.00;;
14817;SDS011;7500;57.698;11.986;2022-09-21T03:47:41;2.27;;;1.20;;
14817;SDS011;7500;57.698;11.986;2022-09-21T03:50:08;1.47;;;1.10;;
14817;SDS011;7500;57.698;11.986;2022-09-21T03:52:36;1.23;;;1.00;;
14817;SDS011;7500;57.698;11.986;2022-09-21T03:55:05;1.87;;;1.30;;
14817;SDS011;7500;57.698;11.986;2022-09-21T03:57:33;3.27;;;1.07;;
14817;SDS011;7500;57.698;11.986;2022-09-21T04:00:03;1.10;;;0.80;;
14817;SDS011;7500;57.698;11.986;2022-09-21T04:02:38;1.40;;;1.13;;
14817;SDS011;7500;57.698;11.986;2022-09-21T04:05:05;0.97;;;0.90;;
14817;SDS011;7500;57.698;11.986;2022-09-21T04:07:33;3.23;;;1.10;;
14817;SDS011;7500;57.698;11.986;2022-09-21T04:10:01;1.87;;;1.00;;
14817;SDS011;7500;57.698;11.986;2022-09-21T04:12:29;2.93;;;1.30;;
14817;SDS011;7500;57.698;11.986;2022-09-21T04:14:56;3.47;;;1.00;;
14817;SDS011;7500;57.698;11.986;2022-09-21T04:17:23;1.13;;;0.80;;
14817;SDS011;7500;57.698;11.986;2022-09-21T04:19:50;1.57;;;1.10;;
14817;SDS011;7500;57.698;11.986;2022-09-21T04:22:17;2.90;;;1.10;;
14817;SDS011;7500;57.698;11.986;2022-09-21T04:24:44;1.67;;;0.90;;
14817;SDS011;7500;57.698;11.986;2022-09-21T04:27:11;1.97;;;0.90;;
14817;SDS011;7500;57.698;11.986;2022-09-21T04:29:39;1.30;;;1.03;;
14817;SDS011;7500;57.698;11.986;2022-09-21T04:32:06;3.30;;;1.20;;
14817;SDS011;7500;57.698;11.986;2022-09-21T04:34:33;1.40;;;1.07;;
14817;SDS011;7500;57.698;11.986;2022-09-21T04:37:00;1.70;;;1.13;;
14817;SDS011;7500;57.698;11.986;2022-09-21T04:39:27;1.20;;;1.00;;
14817;SDS011;7500;57.698;11.986;2022-09-21T04:41:54;1.50;;;1.20;;
14817;SDS011;7500;57.698;11.986;2022-09-21T04:44:20;1.50;;;1.00;;
14817;SDS011;7500;57.698;11.986;2022-09-21T04:46:49;1.87;;;0.90;;
14817;SDS011;7500;57.698;11.986;2022-09-21T04:49:16;1.30;;;1.00;;
14817;SDS011;7500;57.698;11.986;2022-09-21T04:51:42;2.30;;;0.87;;
14817;SDS011;7500;57.698;11.986;2022-09-21T04:54:09;1.97;;;0.90;;
14817;SDS011;7500;57.698;11.986;2022-09-21T04:56:38;1.97;;;1.17;;
14817;SDS011;7500;57.698;11.986;2022-09-21T04:59:04;2.13;;;1.27;;
14817;SDS011;7500;57.698;11.986;2022-09-21T05:01:31;2.93;;;1.23;;
14817;SDS011;7500;57.698;11.986;2022-09-21T05:04:00;3.03;;;1.57;;
14817;SDS011;7500;57.698;11.986;2022-09-21T05:06:27;3.03;;;1.07;;
14817;SDS011;7500;57.698;11.986;2022-09-21T05:08:54;2.83;;;1.90;;
14817;SDS011;7500;57.698;11.986;2022-09-21T05:11:38;6.07;;;1.73;;
14817;SDS011;7500;57.698;11.986;2022-09-21T05:14:05;2.50;;;1.53;;
14817;SDS011;7500;57.698;11.986;2022-09-21T05:16:33;5.23;;;1.60;;
14817;SDS011;7500;57.698;11.986;2022-09-21T05:19:01;3.40;;;1.10;;
14817;SDS011;7500;57.698;11.986;2022-09-21T05:21:29;1.83;;;1.53;;
14817;SDS011;7500;57.698;11.986;2022-09-21T05:23:56;2.90;;;1.50;;
14817;SDS011;7500;57.698;11.986;2022-09-21T05:26:23;1.33;;;1.20;;
14817;SDS011;7500;57.698;11.986;2022-09-21T05:28:50;3.23;;;1.60;;
14817;SDS011;7500;57.698;11.986;2022-09-21T05:31:29;4.30;;;1.63;;
14817;SDS011;7500;57.698;11.986;2022-09-21T05:34:04;2.43;;;1.50;;
14817;SDS011;7500;57.698;11.986;2022-09-21T05:36:44;4.50;;;1.60;;
14817;SDS011;7500;57.698;11.986;2022-09-21T05:39:18;3.07;;;1.53;;
14817;SDS011;7500;57.698;11.986;2022-09-21T05:41:45;4.03;;;2.00;;
14817;SDS011;7500;57.698;11.986;2022-09-21T05:44:13;3.97;;;1.50;;
14817;SDS011;7500;57.698;11.986;2022-09-21T05:46:41;4.60;;;1.77;;
14817;SDS011;7500;57.698;11.986;2022-09-21T05:49:16;3.80;;;1.60;;
14817;SDS011;7500;57.698;11.986;2022-09-21T05:51:48;5.47;;;1.63;;
14817;SDS011;7500;57.698;11.986;2022-09-21T05:54:24;6.10;;;2.23;;
14817;SDS011;7500;57.698;11.986;2022-09-21T05:56:59;6.43;;;1.73;;
14817;SDS011;7500;57.698;11.986;2022-09-21T05:59:46;3.47;;;1.90;;
14817;SDS011;7500;57.698;11.986;2022-09-21T06:02:22;5.83;;;1.70;;
14817;SDS011;7500;57.698;11.986;2022-09-21T06:04:59;5.20;;;1.37;;
14817;SDS011;7500;57.698;11.986;2022-09-21T06:07:27;5.23;;;1.90;;
14817;SDS011;7500;57.698;11.986;2022-09-21T06:09:54;2.90;;;2.00;;
14817;SDS011;7500;57.698;11.986;2022-09-21T06:12:21;3.93;;;1.60;;
14817;SDS011;7500;57.698;11.986;2022-09-21T06:14:48;3.70;;;1.97;;
14817;SDS011;7500;57.698;11.986;2022-09-21T06:17:15;6.47;;;2.10;;
14817;SDS011;7500;57.698;11.986;2022-09-21T06:19:41;3.27;;;1.77;;
14817;SDS011;7500;57.698;11.986;2022-09-21T06:22:09;4.68;;;2.38;;
14817;SDS011;7500;57.698;11.986;2022-09-21T06:24:36;5.40;;;2.07;;
14817;SDS011;7500;57.698;11.986;2022-09-21T06:27:03;5.03;;;2.28;;
14817;SDS011;7500;57.698;11.986;2022-09-21T06:29:30;5.80;;;2.30;;
14817;SDS011;7500;57.698;11.986;2022-09-21T06:31:57;6.47;;;2.40;;
14817;SDS011;7500;57.698;11.986;2022-09-21T06:34:24;5.87;;;2.57;;
14817;SDS011;7500;57.698;11.986;2022-09-21T06:36:51;6.13;;;2.30;;
14817;SDS011;7500;57.698;11.986;2022-09-21T06:39:19;6.23;;;2.23;;
14817;SDS011;7500;57.698;11.986;2022-09-21T06:41:45;5.23;;;2.53;;
14817;SDS011;7500;57.698;11.986;2022-09-21T06:44:12;7.63;;;2.70;;
14817;SDS011;7500;57.698;11.986;2022-09-21T06:46:39;7.47;;;2.77;;
14817;SDS011;7500;57.698;11.986;2022-09-21T06:49:06;6.97;;;2.90;;
14817;SDS011;7500;57.698;11.986;2022-09-21T06:51:33;5.53;;;2.40;;
14817;SDS011;7500;57.698;11.986;2022-09-21T06:54:00;7.07;;;2.40;;
14817;SDS011;7500;57.698;11.986;2022-09-21T06:56:28;6.07;;;2.50;;
14817;SDS011;7500;57.698;11.986;2022-09-21T06:58:55;5.87;;;2.67;;
14817;SDS011;7500;57.698;11.986;2022-09-21T07:01:22;5.83;;;1.93;;
14817;SDS011;7500;57.698;11.986;2022-09-21T07:03:49;6.67;;;2.50;;
14817;SDS011;7500;57.698;11.986;2022-09-21T07:06:18;7.57;;;2.53;;
14817;SDS011;7500;57.698;11.986;2022-09-21T07:08:45;7.53;;;2.50;;
14817;SDS011;7500;57.698;11.986;2022-09-21T07:11:12;9.90;;;2.60;;
14817;SDS011;7500;57.698;11.986;2022-09-21T07:13:41;6.07;;;2.60;;
14817;SDS011;7500;57.698;11.986;2022-09-21T07:16:09;4.50;;;2.13;;
14817;SDS011;7500;57.698;11.986;2022-09-21T07:18:36;6.87;;;2.17;;
14817;SDS011;7500;57.698;11.986;2022-09-21T07:21:06;6.20;;;2.20;;
14817;SDS011;7500;57.698;11.986;2022-09-21T07:23:34;11.20;;;2.37;;
14817;SDS011;7500;57.698;11.986;2022-09-21T07:26:02;7.60;;;2.50;;
14817;SDS011;7500;57.698;11.986;2022-09-21T07:28:31;6.77;;;2.27;;
14817;SDS011;7500;57.698;11.986;2022-09-21T07:31:04;8.97;;;2.10;;
14817;SDS011;7500;57.698;11.986;2022-09-21T07:33:32;6.67;;;2.13;;
14817;SDS011;7500;57.698;11.986;2022-09-21T07:35:59;12.30;;;2.50;;
14817;SDS011;7500;57.698;11.986;2022-09-21T07:38:26;4.63;;;2.10;;
14817;SDS011;7500;57.698;11.986;2022-09-21T07:40:53;6.40;;;2.17;;
14817;SDS011;7500;57.698;11.986;2022-09-21T07:43:20;6.67;;;2.00;;
14817;SDS011;7500;57.698;11.986;2022-09-21T07:45:51;8.33;;;1.67;;
14817;SDS011;7500;57.698;11.986;2022-09-21T07:48:20;6.00;;;2.20;;
14817;SDS011;7500;57.698;11.986;2022-09-21T07:50:48;5.00;;;1.80;;
14817;SDS011;7500;57.698;11.986;2022-09-21T07:53:15;4.47;;;1.87;;
14817;SDS011;7500;57.698;11.986;2022-09-21T07:55:42;11.33;;;2.60;;
14817;SDS011;7500;57.698;11.986;2022-09-21T07:58:09;5.23;;;1.90;;
14817;SDS011;7500;57.698;11.986;2022-09-21T08:01:03;5.13;;;1.77;;
14817;SDS011;7500;57.698;11.986;2022-09-21T08:03:32;7.90;;;2.00;;
14817;SDS011;7500;57.698;11.986;2022-09-21T08:05:58;5.57;;;1.57;;
14817;SDS011;7500;57.698;11.986;2022-09-21T08:08:25;6.57;;;1.60;;
14817;SDS011;7500;57.698;11.986;2022-09-21T08:10:52;2.93;;;1.30;;
14817;SDS011;7500;57.698;11.986;2022-09-21T08:13:19;3.23;;;1.30;;
14817;SDS011;7500;57.698;11.986;2022-09-21T08:15:46;4.30;;;1.00;;
14817;SDS011;7500;57.698;11.986;2022-09-21T08:18:23;2.07;;;1.00;;
14817;SDS011;7500;57.698;11.986;2022-09-21T08:20:53;2.63;;;0.90;;
14817;SDS011;7500;57.698;11.986;2022-09-21T08:23:21;3.13;;;0.87;;
14817;SDS011;7500;57.698;11.986;2022-09-21T08:25:48;4.83;;;1.00;;
14817;SDS011;7500;57.698;11.986;2022-09-21T08:28:15;4.37;;;1.00;;
14817;SDS011;7500;57.698;11.986;2022-09-21T08:30:42;1.83;;;0.83;;
14817;SDS011;7500;57.698;11.986;2022-09-21T08:33:09;6.33;;;0.80;;
14817;SDS011;7500;57.698;11.986;2022-09-21T08:35:36;2.80;;;0.70;;
14817;SDS011;7500;57.698;11.986;2022-09-21T08:38:04;1.90;;;0.63;;
14817;SDS011;7500;57.698;11.986;2022-09-21T08:40:31;3.43;;;0.90;;
14817;SDS011;7500;57.698;11.986;2022-09-21T08:42:59;1.70;;;0.73;;
14817;SDS011;7500;57.698;11.986;2022-09-21T08:45:31;3.97;;;0.77;;
14817;SDS011;7500;57.698;11.986;2022-09-21T08:48:00;1.07;;;0.60;;
14817;SDS011;7500;57.698;11.986;2022-09-21T08:50:33;3.63;;;1.00;;
14817;SDS011;7500;57.698;11.986;2022-09-21T08:53:05;3.40;;;0.97;;
14817;SDS011;7500;57.698;11.986;2022-09-21T08:55:38;1.63;;;0.70;;
14817;SDS011;7500;57.698;11.986;2022-09-21T08:58:05;2.77;;;1.00;;
14817;SDS011;7500;57.698;11.986;2022-09-21T09:00:46;2.40;;;0.97;;
14817;SDS011;7500;57.698;11.986;2022-09-21T09:03:20;3.80;;;0.87;;
14817;SDS011;7500;57.698;11.986;2022-09-21T09:05:58;4.33;;;0.70;;
14817;SDS011;7500;57.698;11.986;2022-09-21T09:08:35;2.30;;;0.57;;
14817;SDS011;7500;57.698;11.986;2022-09-21T09:11:21;2.17;;;0.60;;
14817;SDS011;7500;57.698;11.986;2022-09-21T09:14:00;3.30;;;0.70;;
14817;SDS011;7500;57.698;11.986;2022-09-21T09:16:39;2.30;;;0.70;;
14817;SDS011;7500;57.698;11.986;2022-09-21T09:19:18;2.63;;;0.70;;
14817;SDS011;7500;57.698;11.986;2022-09-21T09:21:48;4.07;;;0.63;;
14817;SDS011;7500;57.698;11.986;2022-09-21T09:24:18;1.90;;;0.67;;
14817;SDS011;7500;57.698;11.986;2022-09-21T09:26:52;2.63;;;0.67;;
14817;SDS011;7500;57.698;11.986;2022-09-21T09:29:27;1.50;;;0.90;;
14817;SDS011;7500;57.698;11.986;2022-09-21T09:32:02;3.93;;;0.80;;
14817;SDS011;7500;57.698;11.986;2022-09-21T09:34:31;3.20;;;0.50;;
14817;SDS011;7500;57.698;11.986;2022-09-21T09:37:04;1.73;;;0.43;;
14817;SDS011;7500;57.698;11.986;2022-09-21T09:39:38;3.87;;;0.63;;
14817;SDS011;7500;57.698;11.986;2022-09-21T09:42:14;2.37;;;1.00;;
14817;SDS011;7500;57.698;11.986;2022-09-21T09:45:06;3.33;;;0.90;;
14817;SDS011;7500;57.698;11.986;2022-09-21T09:47:47;2.50;;;0.60;;
14817;SDS011;7500;57.698;11.986;2022-09-21T09:50:24;2.27;;;0.80;;
14817;SDS011;7500;57.698;11.986;2022-09-21T09:52:55;2.67;;;0.67;;
14817;SDS011;7500;57.698;11.986;2022-09-21T09:55:34;2.67;;;0.57;;
14817;SDS011;7500;57.698;11.986;2022-09-21T09:58:03;3.03;;;0.67;;
14817;SDS011;7500;57.698;11.986;2022-09-21T10:00:37;1.87;;;0.60;;
14817;SDS011;7500;57.698;11.986;2022-09-21T10:03:07;1.30;;;0.50;;
14817;SDS011;7500;57.698;11.986;2022-09-21T10:05:42;4.57;;;0.87;;
14817;SDS011;7500;57.698;11.986;2022-09-21T10:10:56;4.73;;;1.00;;
14817;SDS011;7500;57.698;11.986;2022-09-21T10:13:25;7.33;;;0.93;;
14817;SDS011;7500;57.698;11.986;2022-09-21T10:15:55;2.93;;;0.97;;
14817;SDS011;7500;57.698;11.986;2022-09-21T10:18:25;5.00;;;0.70;;
14817;SDS011;7500;57.698;11.986;2022-09-21T10:21:01;1.60;;;1.00;;
14817;SDS011;7500;57.698;11.986;2022-09-21T10:23:31;3.40;;;0.70;;
14817;SDS011;7500;57.698;11.986;2022-09-21T10:26:01;3.77;;;0.97;;
14817;SDS011;7500;57.698;11.986;2022-09-21T10:28:30;3.17;;;0.70;;
14817;SDS011;7500;57.698;11.986;2022-09-21T10:31:07;2.00;;;0.63;;
14817;SDS011;7500;57.698;11.986;2022-09-21T10:33:42;0.83;;;0.33;;
14817;SDS011;7500;57.698;11.986;2022-09-21T10:39:09;1.60;;;0.40;;
14817;SDS011;7500;57.698;11.986;2022-09-21T10:41:49;4.27;;;0.80;;
14817;SDS011;7500;57.698;11.986;2022-09-21T10:44:18;3.90;;;0.50;;
14817;SDS011;7500;57.698;11.986;2022-09-21T10:46:46;2.13;;;0.53;;
14817;SDS011;7500;57.698;11.986;2022-09-21T10:49:15;1.57;;;0.60;;
14817;SDS011;7500;57.698;11.986;2022-09-21T10:51:46;2.67;;;0.53;;
14817;SDS011;7500;57.698;11.986;2022-09-21T10:54:17;2.50;;;0.63;;
14817;SDS011;7500;57.698;11.986;2022-09-21T10:56:50;3.80;;;0.60;;
14817;SDS011;7500;57.698;11.986;2022-09-21T10:59:20;1.80;;;0.50;;
14817;SDS011;7500;57.698;11.986;2022-09-21T11:01:50;2.23;;;0.70;;
14817;SDS011;7500;57.698;11.986;2022-09-21T11:04:19;3.60;;;0.77;;
14817;SDS011;7500;57.698;11.986;2022-09-21T11:06:53;3.20;;;0.60;;
14817;SDS011;7500;57.698;11.986;2022-09-21T11:09:25;4.63;;;0.80;;
14817;SDS011;7500;57.698;11.986;2022-09-21T11:12:00;1.13;;;0.53;;
14817;SDS011;7500;57.698;11.986;2022-09-21T11:14:40;2.30;;;0.30;;
14817;SDS011;7500;57.698;11.986;2022-09-21T11:17:12;1.53;;;0.40;;
14817;SDS011;7500;57.698;11.986;2022-09-21T11:19:48;5.00;;;0.70;;
14817;SDS011;7500;57.698;11.986;2022-09-21T11:22:21;4.77;;;0.80;;
14817;SDS011;7500;57.698;11.986;2022-09-21T11:25:05;1.30;;;0.53;;
14817;SDS011;7500;57.698;11.986;2022-09-21T11:27:48;1.90;;;0.60;;
14817;SDS011;7500;57.698;11.986;2022-09-21T11:30:19;2.90;;;1.03;;
14817;SDS011;7500;57.698;11.986;2022-09-21T11:32:54;2.43;;;0.60;;
14817;SDS011;7500;57.698;11.986;2022-09-21T11:35:38;2.63;;;0.70;;
14817;SDS011;7500;57.698;11.986;2022-09-21T11:38:17;1.63;;;0.50;;
14817;SDS011;7500;57.698;11.986;2022-09-21T11:40:57;2.07;;;0.37;;
14817;SDS011;7500;57.698;11.986;2022-09-21T11:43:54;2.27;;;0.60;;
14817;SDS011;7500;57.698;11.986;2022-09-21T11:46:34;1.90;;;0.47;;
14817;SDS011;7500;57.698;11.986;2022-09-21T11:49:24;1.90;;;0.60;;
14817;SDS011;7500;57.698;11.986;2022-09-21T11:52:07;2.07;;;0.70;;
14817;SDS011;7500;57.698;11.986;2022-09-21T11:54:55;2.10;;;0.50;;
14817;SDS011;7500;57.698;11.986;2022-09-21T11:57:41;0.73;;;0.40;;
14817;SDS011;7500;57.698;11.986;2022-09-21T12:00:16;1.20;;;0.60;;
14817;SDS011;7500;57.698;11.986;2022-09-21T12:05:40;1.77;;;0.50;;
14817;SDS011;7500;57.698;11.986;2022-09-21T12:11:09;1.77;;;0.33;;
14817;SDS011;7500;57.698;11.986;2022-09-21T12:13:47;1.00;;;0.50;;
14817;SDS011;7500;57.698;11.986;2022-09-21T12:16:27;1.03;;;0.40;;
14817;SDS011;7500;57.698;11.986;2022-09-21T12:19:03;1.40;;;0.67;;
14817;SDS011;7500;57.698;11.986;2022-09-21T12:21:35;4.07;;;0.77;;
14817;SDS011;7500;57.698;11.986;2022-09-21T12:24:11;2.20;;;0.70;;
14817;SDS011;7500;57.698;11.986;2022-09-21T12:26:42;1.97;;;0.80;;
14817;SDS011;7500;57.698;11.986;2022-09-21T12:29:13;1.00;;;0.60;;
14817;SDS011;7500;57.698;11.986;2022-09-21T12:31:54;2.27;;;0.50;;
14817;SDS011;7500;57.698;11.986;2022-09-21T12:34:25;2.27;;;0.80;;
14817;SDS011;7500;57.698;11.986;2022-09-21T12:36:58;0.83;;;0.40;;
14817;SDS011;7500;57.698;11.986;2022-09-21T12:39:31;0.93;;;0.53;;
14817;SDS011;7500;57.698;11.986;2022-09-21T12:42:09;3.20;;;0.70;;
14817;SDS011;7500;57.698;11.986;2022-09-21T12:44:49;1.27;;;0.70;;
14817;SDS011;7500;57.698;11.986;2022-09-21T12:47:23;1.80;;;0.50;;
14817;SDS011;7500;57.698;11.986;2022-09-21T12:49:56;1.20;;;0.47;;
14817;SDS011;7500;57.698;11.986;2022-09-21T12:52:34;1.23;;;0.50;;
14817;SDS011;7500;57.698;11.986;2022-09-21T12:55:03;1.80;;;0.50;;
14817;SDS011;7500;57.698;11.986;2022-09-21T12:57:45;1.93;;;0.57;;
14817;SDS011;7500;57.698;11.986;2022-09-21T13:00:19;4.57;;;0.50;;
14817;SDS011;7500;57.698;11.986;2022-09-21T13:02:52;1.97;;;0.60;;
14817;SDS011;7500;57.698;11.986;2022-09-21T13:05:32;2.57;;;0.67;;
14817;SDS011;7500;57.698;11.986;2022-09-21T13:08:06;1.70;;;0.60;;
14817;SDS011;7500;57.698;11.986;2022-09-21T13:10:40;1.30;;;0.60;;
14817;SDS011;7500;57.698;11.986;2022-09-21T13:13:16;2.17;;;0.77;;
14817;SDS011;7500;57.698;11.986;2022-09-21T13:15:48;1.63;;;0.60;;
14817;SDS011;7500;57.698;11.986;2022-09-21T13:18:18;0.77;;;0.50;;
14817;SDS011;7500;57.698;11.986;2022-09-21T13:20:48;2.07;;;0.53;;
14817;SDS011;7500;57.698;11.986;2022-09-21T13:23:19;0.80;;;0.40;;
14817;SDS011;7500;57.698;11.986;2022-09-21T13:25:49;2.50;;;0.70;;
14817;SDS011;7500;57.698;11.986;2022-09-21T13:28:38;3.10;;;0.60;;
14817;SDS011;7500;57.698;11.986;2022-09-21T13:31:42;2.83;;;0.70;;
14817;SDS011;7500;57.698;11.986;2022-09-21T13:34:27;2.53;;;0.80;;
14817;SDS011;7500;57.698;11.986;2022-09-21T13:49:37;1.90;;;0.60;;
14817;SDS011;7500;57.698;11.986;2022-09-21T13:52:21;1.90;;;0.50;;
14817;SDS011;7500;57.698;11.986;2022-09-21T13:54:58;2.43;;;0.60;;
14817;SDS011;7500;57.698;11.986;2022-09-21T13:57:29;2.80;;;0.50;;
14817;SDS011;7500;57.698;11.986;2022-09-21T14:00:07;1.70;;;0.60;;
14817;SDS011;7500;57.698;11.986;2022-09-21T14:02:55;4.83;;;1.00;;
14817;SDS011;7500;57.698;11.986;2022-09-21T14:05:29;1.97;;;0.60;;
14817;SDS011;7500;57.698;11.986;2022-09-21T14:08:00;3.83;;;0.77;;
14817;SDS011;7500;57.698;11.986;2022-09-21T14:10:30;3.70;;;0.70;;
14817;SDS011;7500;57.698;11.986;2022-09-21T14:13:00;1.43;;;0.80;;
14817;SDS011;7500;57.698;11.986;2022-09-21T14:15:31;3.37;;;0.70;;
14817;SDS011;7500;57.698;11.986;2022-09-21T14:21:09;3.97;;;0.73;;
14817;SDS011;7500;57.698;11.986;2022-09-21T14:23:45;3.13;;;0.67;;
14817;SDS011;7500;57.698;11.986;2022-09-21T14:26:35;3.57;;;0.73;;
14817;SDS011;7500;57.698;11.986;2022-09-21T14:29:15;4.03;;;1.07;;
14817;SDS011;7500;57.698;11.986;2022-09-21T14:31:48;1.87;;;0.60;;
14817;SDS011;7500;57.698;11.986;2022-09-21T14:34:19;3.67;;;1.10;;
14817;SDS011;7500;57.698;11.986;2022-09-21T14:36:52;1.93;;;0.80;;
14817;SDS011;7500;57.698;11.986;2022-09-21T14:39:24;2.70;;;0.90;;
14817;SDS011;7500;57.698;11.986;2022-09-21T14:41:56;5.13;;;0.80;;
14817;SDS011;7500;57.698;11.986;2022-09-21T14:44:33;1.77;;;0.93;;
14817;SDS011;7500;57.698;11.986;2022-09-21T14:47:08;1.57;;;0.60;;
14817;SDS011;7500;57.698;11.986;2022-09-21T14:50:01;5.47;;;1.20;;
14817;SDS011;7500;57.698;11.986;2022-09-21T14:52:50;1.67;;;0.80;;
14817;SDS011;7500;57.698;11.986;2022-09-21T14:55:51;7.53;;;1.60;;
14817;SDS011;7500;57.698;11.986;2022-09-21T14:58:31;1.53;;;0.50;;
14817;SDS011;7500;57.698;11.986;2022-09-21T15:01:19;3.27;;;0.90;;
14817;SDS011;7500;57.698;11.986;2022-09-21T15:03:57;3.43;;;1.00;;
14817;SDS011;7500;57.698;11.986;2022-09-21T15:06:35;5.77;;;1.50;;
14817;SDS011;7500;57.698;11.986;2022-09-21T15:09:29;6.53;;;2.27;;
14817;SDS011;7500;57.698;11.986;2022-09-21T15:12:31;1.80;;;1.10;;
14817;SDS011;7500;57.698;11.986;2022-09-21T15:15:19;1.73;;;0.80;;
14817;SDS011;7500;57.698;11.986;2022-09-21T15:18:12;3.67;;;1.10;;
14817;SDS011;7500;57.698;11.986;2022-09-21T15:20:44;1.23;;;0.70;;
14817;SDS011;7500;57.698;11.986;2022-09-21T15:23:24;4.10;;;0.73;;
14817;SDS011;7500;57.698;11.986;2022-09-21T15:25:56;4.00;;;0.97;;
14817;SDS011;7500;57.698;11.986;2022-09-21T15:28:29;3.30;;;0.93;;
14817;SDS011;7500;57.698;11.986;2022-09-21T15:31:00;4.13;;;0.90;;
14817;SDS011;7500;57.698;11.986;2022-09-21T15:33:28;4.43;;;1.00;;
14817;SDS011;7500;57.698;11.986;2022-09-21T15:35:58;4.27;;;1.30;;
14817;SDS011;7500;57.698;11.986;2022-09-21T15:38:27;1.73;;;0.80;;
14817;SDS011;7500;57.698;11.986;2022-09-21T15:40:57;4.00;;;0.90;;
14817;SDS011;7500;57.698;11.986;2022-09-21T15:43:24;3.03;;;1.00;;
14817;SDS011;7500;57.698;11.986;2022-09-21T15:45:51;2.13;;;0.60;;
14817;SDS011;7500;57.698;11.986;2022-09-21T15:48:20;1.67;;;0.80;;